createdAt,value
2023-04-19T00:01:17.055Z,94352.84
2023-04-19T00:03:44.033Z,94354.25
2023-04-19T00:06:10.999Z,94353.84
2023-04-19T00:08:37.750Z,94349.47
2023-04-19T00:11:04.421Z,94346.69
2023-04-19T00:13:31.135Z,94341.13
2023-04-19T00:15:57.911Z,94342.13
2023-04-19T00:18:24.667Z,94334.34
2023-04-19T00:20:51.390Z,94332.38
2023-04-19T00:23:18.318Z,94343.09
2023-04-19T00:25:49.222Z,94332.97
2023-04-19T00:28:16.325Z,94339.53
2023-04-19T00:30:43.150Z,94332.56
2023-04-19T00:33:13.176Z,94331.34
2023-04-19T00:35:42.869Z,94325.63
2023-04-19T00:38:09.660Z,94326.34
2023-04-19T00:40:37.522Z,94325.38
2023-04-19T00:43:04.396Z,94320.00
2023-04-19T00:45:32.906Z,94314.81
2023-04-19T00:48:00.720Z,94317.22
2023-04-19T00:50:27.692Z,94317.81
2023-04-19T00:52:55.891Z,94315.66
2023-04-19T00:55:23.631Z,94308.94
2023-04-19T00:57:52.292Z,94303.34
2023-04-19T01:00:20.114Z,94307.34
2023-04-19T01:02:48.113Z,94321.44
2023-04-19T01:05:15.244Z,94304.34
2023-04-19T01:07:43.222Z,94308.28
2023-04-19T01:10:10.417Z,94306.50
2023-04-19T01:12:38.210Z,94291.59
2023-04-19T01:15:05.511Z,94297.38
2023-04-19T01:17:33.288Z,94302.34
2023-04-19T01:20:01.201Z,94294.56
2023-04-19T01:22:28.555Z,94289.41
2023-04-19T01:24:56.162Z,94293.59
2023-04-19T01:27:24.057Z,94287.66
2023-04-19T01:29:50.794Z,94278.28
2023-04-19T01:32:17.498Z,94283.25
2023-04-19T01:34:44.313Z,94277.06
2023-04-19T01:37:11.018Z,94273.09
2023-04-19T01:39:37.779Z,94263.53
2023-04-19T01:42:04.655Z,94272.69
2023-04-19T01:44:31.715Z,94267.53
2023-04-19T01:46:58.424Z,94272.69
2023-04-19T01:49:25.200Z,94269.94
2023-04-19T01:51:51.953Z,94266.34
2023-04-19T01:54:18.764Z,94264.75
2023-04-19T01:56:45.541Z,94254.00
2023-04-19T01:59:12.252Z,94255.59
2023-04-19T02:01:38.876Z,94256.41
2023-04-19T02:04:05.797Z,94258.38
2023-04-19T02:06:32.542Z,94259.78
2023-04-19T02:08:59.264Z,94243.06
2023-04-19T02:11:25.964Z,94260.78
2023-04-19T02:13:52.668Z,94253.81
2023-04-19T02:16:19.445Z,94255.59
2023-04-19T02:18:46.945Z,94248.41
2023-04-19T02:21:14.174Z,94242.81
2023-04-19T02:23:40.860Z,94244.22
2023-04-19T02:26:07.688Z,94248.22
2023-04-19T02:28:34.407Z,94235.91
2023-04-19T02:31:04.820Z,94243.69
2023-04-19T02:33:31.580Z,94239.72
2023-04-19T02:35:58.291Z,94238.50
2023-04-19T02:38:25.060Z,94244.88
2023-04-19T02:40:51.793Z,94233.75
2023-04-19T02:43:18.589Z,94238.50
2023-04-19T02:45:45.267Z,94235.94
2023-04-19T02:48:12.027Z,94238.94
2023-04-19T02:50:38.980Z,94229.59
2023-04-19T02:53:06.003Z,94210.47
2023-04-19T02:55:33.413Z,94217.06
2023-04-19T02:58:00.253Z,94221.41
2023-04-19T03:00:27.026Z,94216.00
2023-04-19T03:02:54.011Z,94216.22
2023-04-19T03:05:21.025Z,94217.06
2023-04-19T03:07:47.814Z,94211.09
2023-04-19T03:10:14.533Z,94214.84
2023-04-19T03:12:41.237Z,94200.34
2023-04-19T03:15:08.708Z,94213.47
2023-04-19T03:17:36.081Z,94202.53
2023-04-19T03:20:02.878Z,94204.94
2023-04-19T03:22:29.575Z,94199.97
2023-04-19T03:24:56.915Z,94188.03
2023-04-19T03:27:23.758Z,94193.59
2023-04-19T03:29:50.505Z,94190.03
2023-04-19T03:32:17.233Z,94192.00
2023-04-19T03:34:44.123Z,94185.44
2023-04-19T03:37:11.175Z,94181.06
2023-04-19T03:39:37.855Z,94182.44
2023-04-19T03:42:04.776Z,94178.50
2023-04-19T03:44:34.923Z,94180.47
2023-04-19T03:47:01.590Z,94176.69
2023-04-19T03:49:28.336Z,94161.22
2023-04-19T03:51:55.102Z,94169.53
2023-04-19T03:54:21.805Z,94171.34
2023-04-19T03:56:48.622Z,94180.88
2023-04-19T03:59:15.363Z,94178.09
2023-04-19T04:01:42.563Z,94177.09
2023-04-19T04:04:09.788Z,94174.53
2023-04-19T04:06:36.760Z,94176.50
2023-04-19T04:09:04.186Z,94169.75
2023-04-19T04:11:30.995Z,94168.16
2023-04-19T04:13:57.916Z,94168.31
2023-04-19T04:16:24.751Z,94175.31
2023-04-19T04:18:51.524Z,94168.53
2023-04-19T04:21:18.208Z,94177.88
2023-04-19T04:23:45.739Z,94170.72
2023-04-19T04:26:13.919Z,94186.00
2023-04-19T04:28:40.685Z,94185.00
2023-04-19T04:31:07.350Z,94184.00
2023-04-19T04:33:36.017Z,94176.88
2023-04-19T04:36:02.887Z,94181.44
2023-04-19T04:38:30.013Z,94180.44
2023-04-19T04:40:56.924Z,94173.69
2023-04-19T04:43:25.807Z,94178.25
2023-04-19T04:45:55.775Z,94177.66
2023-04-19T04:48:22.608Z,94177.47
2023-04-19T04:50:49.368Z,94176.47
2023-04-19T04:53:16.176Z,94176.88
2023-04-19T04:55:42.878Z,94175.31
2023-04-19T04:58:09.509Z,94172.56
2023-04-19T05:00:36.601Z,94174.94
2023-04-19T05:03:03.646Z,94173.34
2023-04-19T05:05:30.841Z,94174.75
2023-04-19T05:07:57.850Z,94172.56
2023-04-19T05:10:24.717Z,94165.41
2023-04-19T05:12:51.592Z,94169.00
2023-04-19T05:15:18.567Z,94159.88
2023-04-19T05:17:45.467Z,94160.28
2023-04-19T05:20:12.352Z,94161.44
2023-04-19T05:22:39.157Z,94155.47
2023-04-19T05:25:06.668Z,94155.28
2023-04-19T05:27:33.416Z,94161.06
2023-04-19T05:30:00.186Z,94161.06
2023-04-19T05:32:27.744Z,94163.44
2023-04-19T05:34:54.557Z,94162.06
2023-04-19T05:37:21.267Z,94149.31
2023-04-19T05:39:47.968Z,94153.91
2023-04-19T05:42:14.675Z,94156.28
2023-04-19T05:44:41.468Z,94149.75
2023-04-19T05:47:09.036Z,94150.53
2023-04-19T05:49:36.109Z,94149.13
2023-04-19T05:52:02.871Z,94149.94
2023-04-19T05:54:34.541Z,94146.75
2023-04-19T05:57:01.537Z,94145.75
2023-04-19T05:59:28.573Z,94142.19
2023-04-19T06:01:56.404Z,94138.38
2023-04-19T06:04:23.551Z,94132.22
2023-04-19T06:06:50.859Z,94141.97
2023-04-19T06:09:18.690Z,94143.94
2023-04-19T06:11:50.566Z,94142.16
2023-04-19T06:14:18.508Z,94143.16
2023-04-19T06:16:45.767Z,94130.00
2023-04-19T06:19:12.580Z,94136.97
2023-04-19T06:21:39.434Z,94130.59
2023-04-19T06:24:07.360Z,94131.38
2023-04-19T06:26:34.246Z,94132.38
2023-04-19T06:29:01.447Z,94129.53
2023-04-19T06:31:28.450Z,94129.09
2023-04-19T06:33:55.148Z,94129.25
2023-04-19T06:36:21.878Z,94133.75
2023-04-19T06:38:50.181Z,94130.16
2023-04-19T06:41:17.953Z,94134.94
2023-04-19T06:43:45.036Z,94137.53
2023-04-19T06:46:14.143Z,94137.69
2023-04-19T06:48:41.217Z,94135.66
2023-04-19T06:51:08.226Z,94132.97
2023-04-19T06:53:35.797Z,94139.03
2023-04-19T06:56:06.847Z,94135.84
2023-04-19T06:58:35.084Z,94139.22
2023-04-19T07:01:04.652Z,94133.63
2023-04-19T07:03:31.996Z,94134.81
2023-04-19T07:05:59.009Z,94137.25
2023-04-19T07:08:42.387Z,94128.78
2023-04-19T07:11:15.291Z,94136.31
2023-04-19T07:13:42.006Z,94126.50
2023-04-19T07:16:08.759Z,94128.94
2023-04-19T07:18:35.492Z,94128.94
2023-04-19T07:21:02.469Z,94127.84
2023-04-19T07:23:30.979Z,94114.38
2023-04-19T07:25:57.713Z,94120.06
2023-04-19T07:28:24.531Z,94116.63
2023-04-19T07:30:51.242Z,94118.94
2023-04-19T07:33:18.092Z,94117.00
2023-04-19T07:35:44.822Z,94116.31
2023-04-19T07:38:11.533Z,94109.09
2023-04-19T07:40:38.332Z,94103.66
2023-04-19T07:43:05.047Z,94107.69
2023-04-19T07:45:31.842Z,94103.63
2023-04-19T07:47:58.626Z,94101.28
2023-04-19T07:50:29.067Z,94104.81
2023-04-19T07:52:56.840Z,94100.47
2023-04-19T07:55:24.030Z,94101.91
2023-04-19T07:57:51.014Z,94097.63
2023-04-19T08:00:18.907Z,94096.88
2023-04-19T08:02:46.730Z,94088.66
2023-04-19T08:05:17.246Z,94092.34
2023-04-19T08:07:44.859Z,94094.13
2023-04-19T08:10:11.981Z,94095.97
2023-04-19T08:12:47.336Z,94087.50
2023-04-19T08:16:05.248Z,94082.53
2023-04-19T08:18:11.184Z,94079.00
2023-04-19T08:20:38.120Z,94081.94
2023-04-19T08:23:18.097Z,94094.63
2023-04-19T08:25:49.691Z,94087.13
2023-04-19T08:28:17.239Z,94084.03
2023-04-19T08:30:44.048Z,94080.25
2023-04-19T08:33:13.700Z,94084.44
2023-04-19T08:35:41.610Z,94091.97
2023-04-19T08:38:09.043Z,94090.75
2023-04-19T08:40:36.030Z,94084.03
2023-04-19T08:43:07.392Z,94083.03
2023-04-19T08:45:34.759Z,94083.75
2023-04-19T08:48:03.335Z,94081.59
2023-04-19T08:50:34.492Z,94084.22
2023-04-19T08:53:21.080Z,94076.97
2023-04-19T08:56:10.831Z,94073.81
2023-04-19T08:58:57.957Z,94070.06
2023-04-19T09:01:35.600Z,94061.25
2023-04-19T09:04:21.514Z,94063.34
2023-04-19T09:06:53.187Z,94061.25
2023-04-19T09:09:34.062Z,94056.25
2023-04-19T09:12:03.889Z,94048.25
2023-04-19T09:14:30.728Z,94051.16
2023-04-19T09:17:16.544Z,94046.69
2023-04-19T09:19:48.101Z,94035.13
2023-04-19T09:22:15.316Z,94038.44
2023-04-19T09:27:12.496Z,94029.56
2023-04-19T09:29:39.741Z,94032.69
2023-04-19T09:32:06.631Z,94033.59
2023-04-19T09:34:33.342Z,94028.41
2023-04-19T09:37:17.755Z,94018.22
2023-04-19T09:39:54.917Z,94026.25
2023-04-19T09:42:38.615Z,94021.38
2023-04-19T09:47:38.920Z,94019.56
2023-04-19T09:50:21.363Z,94012.09
2023-04-19T09:52:50.411Z,94008.16
2023-04-19T09:55:26.859Z,94001.94
2023-04-19T09:57:55.551Z,93996.63
2023-04-19T10:00:23.167Z,93999.56
2023-04-19T10:02:55.978Z,93994.66
2023-04-19T10:05:24.776Z,93994.56
2023-04-19T10:07:54.898Z,93998.53
2023-04-19T10:10:33.297Z,93995.84
2023-04-19T10:13:20.198Z,93996.50
2023-04-19T10:15:53.606Z,93998.00
2023-04-19T10:18:24.204Z,93987.81
2023-04-19T10:21:01.197Z,93980.91
2023-04-19T10:23:28.222Z,93982.16
2023-04-19T10:25:58.650Z,93963.81
2023-04-19T10:28:28.513Z,93963.66
2023-04-19T10:31:03.317Z,93954.09
2023-04-19T10:33:32.118Z,93939.84
2023-04-19T10:35:59.957Z,93950.44
2023-04-19T10:38:44.577Z,93952.94
2023-04-19T10:41:18.563Z,93944.47
2023-04-19T10:44:09.332Z,93949.56
2023-04-19T10:46:38.461Z,93930.06
2023-04-19T10:49:06.142Z,93931.09
2023-04-19T10:51:35.813Z,93928.94
2023-04-19T10:54:07.063Z,93931.41
2023-04-19T10:56:36.551Z,93931.13
2023-04-19T10:59:07.790Z,93921.34
2023-04-19T11:01:37.469Z,93924.84
2023-04-19T11:04:04.441Z,93921.00
2023-04-19T11:06:32.400Z,93924.19
2023-04-19T11:09:00.732Z,93916.50
2023-04-19T11:11:27.538Z,93918.06
2023-04-19T11:13:58.049Z,93918.03
2023-04-19T11:16:34.302Z,93905.50
2023-04-19T11:19:15.954Z,93908.16
2023-04-19T11:21:42.840Z,93901.88
2023-04-19T11:24:10.046Z,93905.38
2023-04-19T11:26:36.925Z,93896.47
2023-04-19T11:29:04.704Z,93895.31
2023-04-19T11:31:34.348Z,93888.03
2023-04-19T11:34:08.213Z,93901.78
2023-04-19T11:36:37.160Z,93896.75
2023-04-19T11:39:07.007Z,93886.31
2023-04-19T11:41:39.922Z,93897.34
2023-04-19T11:44:24.872Z,93903.34
2023-04-19T11:47:02.626Z,93887.16
2023-04-19T11:49:31.146Z,93882.59
2023-04-19T11:51:59.681Z,93887.63
2023-04-19T11:54:27.112Z,93896.22
2023-04-19T11:57:09.067Z,93884.16
2023-04-19T11:59:36.785Z,93889.72
2023-04-19T12:02:13.159Z,93894.59
2023-04-19T12:04:41.095Z,93884.75
2023-04-19T12:07:08.165Z,93883.09
2023-04-19T12:09:36.475Z,93883.69
2023-04-19T12:12:03.781Z,93885.28
2023-04-19T12:14:31.708Z,93886.19
2023-04-19T12:17:12.391Z,93892.66
2023-04-19T12:19:48.445Z,93886.78
2023-04-19T12:22:17.709Z,93883.16
2023-04-19T12:24:44.487Z,93888.00
2023-04-19T12:27:11.653Z,93885.50
2023-04-19T12:29:39.320Z,93880.56
2023-04-19T12:32:06.592Z,93877.38
2023-04-19T12:34:33.465Z,93883.59
2023-04-19T12:37:00.272Z,93876.94
2023-04-19T12:39:27.030Z,93887.25
2023-04-19T12:41:53.728Z,93879.78
2023-04-19T12:44:20.497Z,93879.53
2023-04-19T12:46:47.265Z,93885.41
2023-04-19T12:49:14.328Z,93877.84
2023-04-19T12:51:42.800Z,93871.16
2023-04-19T12:54:09.666Z,93868.94
2023-04-19T12:56:36.510Z,93865.28
2023-04-19T12:59:03.380Z,93868.34
2023-04-19T13:01:30.260Z,93862.16
2023-04-19T13:03:59.359Z,93862.69
2023-04-19T13:06:26.589Z,93859.75
2023-04-19T13:08:54.881Z,93861.19
2023-04-19T13:11:23.648Z,93856.94
2023-04-19T13:13:52.436Z,93859.44
2023-04-19T13:16:20.041Z,93854.81
2023-04-19T13:18:47.005Z,93850.53
2023-04-19T13:21:13.802Z,93854.94
2023-04-19T13:23:40.699Z,93848.56
2023-04-19T13:26:07.498Z,93847.00
2023-04-19T13:28:36.044Z,93853.22
2023-04-19T13:31:04.624Z,93850.50
2023-04-19T13:33:31.355Z,93848.59
2023-04-19T13:35:58.183Z,93838.88
2023-04-19T13:38:25.374Z,93842.03
2023-04-19T13:40:52.158Z,93839.78
2023-04-19T13:43:18.981Z,93830.16
2023-04-19T13:45:46.403Z,93841.09
2023-04-19T13:48:13.292Z,93835.22
2023-04-19T13:50:40.044Z,93840.81
2023-04-19T13:53:07.000Z,93838.03
2023-04-19T13:55:33.852Z,93841.38
2023-04-19T13:58:00.980Z,93839.88
2023-04-19T14:00:28.252Z,93833.41
2023-04-19T14:02:56.511Z,93844.09
2023-04-19T14:05:23.554Z,93844.22
2023-04-19T14:07:50.416Z,93837.09
2023-04-19T14:10:17.231Z,93827.44
2023-04-19T14:12:45.119Z,93848.28
2023-04-19T14:15:12.221Z,93835.94
2023-04-19T14:17:39.091Z,93834.34
2023-04-19T14:20:07.501Z,93832.59
2023-04-19T14:22:35.544Z,93834.91
2023-04-19T14:25:04.114Z,93821.78
2023-04-19T14:27:31.150Z,93823.31
2023-04-19T14:29:58.049Z,93822.03
2023-04-19T14:32:27.026Z,93821.81
2023-04-19T14:34:54.993Z,93819.97
2023-04-19T14:37:22.525Z,93823.72
2023-04-19T14:39:49.214Z,93824.06
2023-04-19T14:42:16.038Z,93821.69
2023-04-19T14:44:42.933Z,93816.41
2023-04-19T14:47:09.637Z,93821.56
2023-04-19T14:49:36.347Z,93819.84
2023-04-19T14:52:04.063Z,93821.84
2023-04-19T14:54:30.929Z,93829.38
2023-04-19T14:56:57.693Z,93836.28
2023-04-19T14:59:24.443Z,93831.13
2023-04-19T15:01:51.192Z,93834.41
2023-04-19T15:04:18.046Z,93832.91
2023-04-19T15:06:45.084Z,93838.16
2023-04-19T15:09:11.770Z,93839.16
2023-04-19T15:11:38.657Z,93827.63
2023-04-19T15:14:05.336Z,93834.41
2023-04-19T15:16:32.238Z,93840.88
2023-04-19T15:18:59.095Z,93828.22
2023-04-19T15:21:25.900Z,93850.38
2023-04-19T15:23:52.808Z,93849.25
2023-04-19T15:26:19.644Z,93851.25
2023-04-19T15:28:46.477Z,93849.75
2023-04-19T15:31:13.426Z,93846.56
2023-04-19T15:33:40.289Z,93845.78
2023-04-19T15:36:07.176Z,93846.50
2023-04-19T15:38:33.945Z,93838.44
2023-04-19T15:41:01.669Z,93842.47
2023-04-19T15:43:28.683Z,93847.88
2023-04-19T15:45:55.809Z,93841.81
2023-04-19T15:48:22.876Z,93843.50
2023-04-19T15:50:49.710Z,93850.38
2023-04-19T15:53:16.965Z,93844.19
2023-04-19T15:55:44.340Z,93847.78
2023-04-19T15:58:11.076Z,93849.25
2023-04-19T16:00:37.936Z,93845.38
2023-04-19T16:03:04.983Z,93848.19
2023-04-19T16:05:31.852Z,93853.03
2023-04-19T16:08:07.209Z,93853.81
2023-04-19T16:10:34.546Z,93863.88
2023-04-19T16:13:03.239Z,93847.66
2023-04-19T16:15:29.882Z,93863.13
2023-04-19T16:17:56.647Z,93858.28
2023-04-19T16:20:23.868Z,93865.84
2023-04-19T16:22:50.782Z,93865.03
2023-04-19T16:25:17.932Z,93850.94
2023-04-19T16:27:46.439Z,93859.69
2023-04-19T16:30:14.413Z,93857.53
2023-04-19T16:32:41.978Z,93859.28
2023-04-19T16:35:09.749Z,93860.88
2023-04-19T16:37:36.670Z,93855.75
2023-04-19T16:40:09.953Z,93860.28
2023-04-19T16:42:38.300Z,93860.03
2023-04-19T16:45:05.768Z,93856.53
2023-04-19T16:47:33.230Z,93852.09
2023-04-19T16:50:01.073Z,93857.34
2023-04-19T16:52:29.220Z,93870.00
2023-04-19T16:54:56.091Z,93870.41
2023-04-19T16:57:23.314Z,93863.84
2023-04-19T16:59:50.624Z,93867.94
2023-04-19T17:02:17.777Z,93867.78
2023-04-19T17:04:44.942Z,93867.63
2023-04-19T17:07:12.530Z,93870.47
2023-04-19T17:09:39.474Z,93864.34
2023-04-19T17:12:06.581Z,93876.06
2023-04-19T17:14:36.650Z,93864.19
2023-04-19T17:17:03.360Z,93878.81
2023-04-19T17:19:30.082Z,93873.63
2023-04-19T17:21:58.731Z,93881.00
2023-04-19T17:24:25.519Z,93880.41
2023-04-19T17:26:52.260Z,93883.66
2023-04-19T17:29:19.114Z,93888.38
2023-04-19T17:31:46.150Z,93886.44
2023-04-19T17:34:12.795Z,93894.03
2023-04-19T17:36:39.443Z,93894.25
2023-04-19T17:39:07.979Z,93897.66
2023-04-19T17:41:34.724Z,93901.44
2023-04-19T17:44:01.453Z,93903.22
2023-04-19T17:46:28.170Z,93903.78
2023-04-19T17:48:55.651Z,93909.78
2023-04-19T17:51:22.430Z,93914.13
2023-04-19T17:53:49.125Z,93924.25
2023-04-19T17:56:15.809Z,93920.28
2023-04-19T17:58:42.622Z,93920.31
2023-04-19T18:01:10.576Z,93924.47
2023-04-19T18:03:38.074Z,93934.22
2023-04-19T18:06:05.112Z,93940.78
2023-04-19T18:08:31.798Z,93946.69
2023-04-19T18:10:58.565Z,93951.56
2023-04-19T18:13:25.400Z,93947.44
2023-04-19T18:15:52.046Z,93946.28
2023-04-19T18:18:18.889Z,93949.66
2023-04-19T18:20:46.605Z,93960.78
2023-04-19T18:23:15.075Z,93898.38
2023-04-19T18:25:44.589Z,93960.56
2023-04-19T18:28:13.053Z,93968.72
2023-04-19T18:30:43.211Z,93968.31
2023-04-19T18:33:12.736Z,93971.28
2023-04-19T18:35:44.224Z,93979.03
2023-04-19T18:38:15.582Z,93986.56
2023-04-19T18:40:45.515Z,93978.56
2023-04-19T18:43:15.169Z,93982.28
2023-04-19T18:45:46.338Z,93981.13
2023-04-19T18:48:14.332Z,93985.28
2023-04-19T18:50:44.731Z,93984.31
2023-04-19T18:53:13.315Z,93989.22
2023-04-19T18:55:41.430Z,93991.19
2023-04-19T18:58:11.539Z,93978.50
2023-04-19T19:00:44.116Z,93991.59
2023-04-19T19:03:49.909Z,93993.56
2023-04-19T19:06:11.831Z,93999.91
2023-04-19T19:08:42.922Z,94006.44
2023-04-19T19:11:37.299Z,93983.81
2023-04-19T19:14:05.825Z,94011.13
2023-04-19T19:16:50.975Z,94015.50
2023-04-19T19:19:23.791Z,94017.47
2023-04-19T19:21:55.366Z,94022.09
2023-04-19T19:24:27.936Z,94024.44
2023-04-19T19:27:06.648Z,94030.75
2023-04-19T19:29:38.272Z,94033.91
2023-04-19T19:32:09.744Z,94033.53
2023-04-19T19:34:51.249Z,94035.13
2023-04-19T19:37:24.139Z,94037.88
2023-04-19T19:39:56.345Z,94038.69
2023-04-19T19:42:26.632Z,94032.34
2023-04-19T19:44:56.116Z,94036.09
2023-04-19T19:47:36.004Z,94032.28
2023-04-19T19:52:41.905Z,94033.78
2023-04-19T19:55:13.011Z,94034.44
2023-04-19T19:58:14.027Z,94032.03
2023-04-19T20:00:45.001Z,94030.06
2023-04-19T20:03:16.738Z,94026.69
2023-04-19T20:05:53.723Z,94036.41
2023-04-19T20:08:26.554Z,94027.09
2023-04-19T20:10:55.021Z,94021.13
2023-04-19T20:13:21.891Z,94019.53
2023-04-19T20:15:48.565Z,94020.78
2023-04-19T20:18:15.445Z,94021.94
2023-04-19T20:20:42.081Z,94023.13
2023-04-19T20:23:08.756Z,94022.06
2023-04-19T20:25:35.430Z,94025.63
2023-04-19T20:28:02.319Z,94016.72
2023-04-19T20:30:29.011Z,94018.75
2023-04-19T20:32:55.801Z,94020.72
2023-04-19T20:35:23.232Z,94024.84
2023-04-19T20:37:50.961Z,94026.19
2023-04-19T20:40:17.884Z,94027.66
2023-04-19T20:42:45.227Z,94037.72
2023-04-19T20:45:12.949Z,94021.75
2023-04-19T20:47:41.294Z,94033.03
2023-04-19T20:50:08.814Z,94043.81
2023-04-19T20:52:35.809Z,94035.28
2023-04-19T20:55:02.481Z,94030.34
2023-04-19T20:57:29.164Z,94024.66
2023-04-19T20:59:55.794Z,94025.03
2023-04-19T21:02:22.501Z,94031.34
2023-04-19T21:04:49.166Z,94012.91
2023-04-19T21:07:16.031Z,94029.13
2023-04-19T21:09:42.650Z,94028.00
2023-04-19T21:12:09.305Z,94037.91
2023-04-19T21:14:36.023Z,94028.88
2023-04-19T21:17:03.562Z,94032.47
2023-04-19T21:19:30.328Z,94023.78
2023-04-19T21:21:58.002Z,94029.94
2023-04-19T21:24:24.781Z,94028.94
2023-04-19T21:26:51.459Z,94024.19
2023-04-19T21:29:18.547Z,94026.19
2023-04-19T21:31:45.556Z,94037.63
2023-04-19T21:34:12.161Z,94029.34
2023-04-19T21:36:38.711Z,94024.19
2023-04-19T21:39:05.421Z,94028.94
2023-04-19T21:41:32.001Z,94006.66
2023-04-19T21:43:58.641Z,94037.25
2023-04-19T21:46:25.486Z,94031.13
2023-04-19T21:48:53.596Z,94033.69
2023-04-19T21:51:22.251Z,94025.81
2023-04-19T21:53:48.871Z,94018.88
2023-04-19T21:56:15.450Z,94012.19
2023-04-19T21:58:42.047Z,94012.38
2023-04-19T22:01:08.651Z,94011.53
2023-04-19T22:03:35.517Z,94004.84
2023-04-19T22:06:02.656Z,94009.56
2023-04-19T22:08:31.540Z,94007.47
2023-04-19T22:11:00.428Z,94016.66
2023-04-19T22:13:28.439Z,94002.69
2023-04-19T22:15:57.229Z,94002.38
2023-04-19T22:18:24.215Z,94002.34
2023-04-19T22:20:52.187Z,94000.22
2023-04-19T22:23:19.126Z,94002.75
2023-04-19T22:25:46.055Z,94005.56
2023-04-19T22:28:12.861Z,94005.09
2023-04-19T22:30:39.621Z,94009.50
2023-04-19T22:33:06.607Z,94000.41
2023-04-19T22:35:33.320Z,93989.94
2023-04-19T22:37:59.910Z,93997.25
2023-04-19T22:40:26.475Z,93990.31
2023-04-19T22:42:53.050Z,93993.00
2023-04-19T22:45:19.682Z,93988.47
2023-04-19T22:47:46.464Z,93986.84
2023-04-19T22:50:13.160Z,93991.25
2023-04-19T22:52:40.908Z,93989.63
2023-04-19T22:55:07.859Z,93982.47
2023-04-19T22:57:34.466Z,93984.69
2023-04-19T23:00:01.126Z,93980.31
2023-04-19T23:02:27.992Z,93979.91
2023-04-19T23:04:54.740Z,93988.84
2023-04-19T23:07:22.098Z,93985.28
2023-04-19T23:09:49.836Z,93971.81
2023-04-19T23:12:17.560Z,93969.84
2023-04-19T23:14:44.339Z,93967.25
2023-04-19T23:17:11.125Z,93958.38
2023-04-19T23:19:38.933Z,93956.59
2023-04-19T23:22:05.805Z,93958.00
2023-04-19T23:24:32.556Z,93959.78
2023-04-19T23:26:59.294Z,93953.22
2023-04-19T23:29:26.130Z,93951.03
2023-04-19T23:31:52.928Z,93938.94
2023-04-19T23:34:19.702Z,93944.34
2023-04-19T23:36:46.521Z,93942.97
2023-04-19T23:39:13.272Z,93941.19
2023-04-19T23:41:40.098Z,93936.84
2023-04-19T23:44:06.902Z,93929.50
2023-04-19T23:46:33.675Z,93924.72
2023-04-19T23:49:00.491Z,93927.63
2023-04-19T23:51:27.246Z,93923.88
2023-04-19T23:53:54.008Z,93922.69
2023-04-19T23:56:20.562Z,93920.63
2023-04-19T23:58:47.160Z,93914.75
